Weather History for Beatrice, NE

Change the Weather History Date:

Wednesday, April 23, 2014

  Actual Average Record
Temperature  
Mean Temperature 63 °F -  
Max Temperature 75 °F 69 °F 90 °F (1950)
Min Temperature 51 °F 41 °F 29 °F (1963)
Degree Days  
Heating Degree Days 2    
Growing Degree Days 13 (Base 50)    
Moisture  
Dew Point 42 °F    
Average Humidity 49    
Maximum Humidity 71    
Minimum Humidity 35    
Precipitation  
Precipitation 0.04 in - - ()
Sea Level Pressure  
Sea Level Pressure 29.74 in    
Wind  
Wind Speed 15 mph (SE)    
Max Wind Speed 26 mph    
Max Gust Speed 39 mph    
Visibility 10 miles    
Events Rain , Thunderstorm    
Averages and records for this station are not official NWS values.
T = Trace of Precipitation, MM = Missing Value Source: NWS Daily Summary

Daily Weather History Graph

Daily Weather History Graph

Search for Another Location

Airport:

Trip Planner

Search our weather history database for the weather conditions in past years. The results will help you decide how hot, cold, wet, or windy it might be!

Date:

Astronomy

Apr. 23, 2014 Rise Set
Actual Time 6:37 AM CDT 8:14 PM CDT
Civil Twilight 6:08 AM CDT 8:43 PM CDT
Nautical Twilight 5:33 AM CDT 9:17 PM CDT
Astronomical Twilight 4:56 AM CDT 9:55 PM CDT
Moon 3:10 AM CDT (4/23) 2:23 PM CDT (4/23)
Length of Visible Light 14h 34m
Length of Day
13h 37m
Waning Crescent, 34% of the Moon is Illuminated
Apr 23
Waning Crescent
Apr 29
New
May 6
First Quarter
May 14
Full
May 21
Last Quarter

Hourly Weather History & Observations

Time (CDT) Temp. Dew Point Humidity Pressure Visibility Wind Dir Wind Speed Gust Speed Precip Events Conditions
12:15 AM 57.7 °F 32.4 °F 38% 29.95 in 10.0 mi SE 8.1 mph - N/A   Mostly Cloudy
12:35 AM 58.6 °F 32.2 °F 37% 29.95 in 10.0 mi SE 9.2 mph - N/A   Mostly Cloudy
12:55 AM 59.0 °F 32.5 °F 37% 29.95 in 10.0 mi SSE 11.5 mph - N/A   Mostly Cloudy
1:15 AM 59.0 °F 32.2 °F 36% 29.93 in 10.0 mi SE 12.7 mph - N/A   Mostly Cloudy
1:35 AM 58.6 °F 32.0 °F 37% 29.93 in 10.0 mi SE 13.8 mph 19.6 mph N/A   Scattered Clouds
1:55 AM 57.9 °F 32.4 °F 38% 29.93 in 10.0 mi SE 12.7 mph - N/A   Clear
2:15 AM 57.6 °F 32.5 °F 39% 29.91 in 10.0 mi SE 13.8 mph - N/A   Clear
2:35 AM 57.2 °F 32.5 °F 39% 29.91 in 10.0 mi SE 15.0 mph 18.4 mph N/A   Clear
2:55 AM 56.8 °F 32.4 °F 40% 29.90 in 10.0 mi SE 11.5 mph - N/A   Clear
3:15 AM 56.8 °F 32.2 °F 39% 29.89 in 10.0 mi SE 13.8 mph 19.6 mph N/A   Clear
3:35 AM 56.7 °F 32.4 °F 40% 29.89 in 10.0 mi SE 13.8 mph - N/A   Clear
3:55 AM 56.5 °F 32.7 °F 41% 29.89 in 10.0 mi SE 13.8 mph 20.7 mph N/A   Clear
4:15 AM 56.3 °F 32.9 °F 41% 29.90 in 10.0 mi SE 13.8 mph 18.4 mph N/A   Clear
4:35 AM 55.9 °F 33.3 °F 42% 29.91 in 10.0 mi SSE 11.5 mph - N/A   Clear
4:55 AM 55.6 °F 34.3 °F 45% 29.91 in 10.0 mi SE 10.4 mph - N/A   Mostly Cloudy
5:15 AM 55.4 °F 34.7 °F 46% 29.89 in 10.0 mi SE 12.7 mph 17.3 mph N/A   Mostly Cloudy
5:35 AM 54.7 °F 35.8 °F 49% 29.88 in 10.0 mi SE 12.7 mph 20.7 mph N/A Rain Light Rain
5:55 AM 55.4 °F 35.8 °F 48% 29.90 in 10.0 mi SSE 15.0 mph 23.0 mph N/A Rain Light Rain
6:15 AM 54.3 °F 37.8 °F 54% 29.90 in 10.0 mi SSE 13.8 mph 20.7 mph N/A Rain Light Rain
6:35 AM 54.7 °F 36.7 °F 51% 29.91 in 10.0 mi SE 16.1 mph - N/A   Overcast
6:55 AM 52.3 °F 40.1 °F 63% 29.89 in 10.0 mi SE 15.0 mph 21.9 mph N/A Rain Light Rain
7:15 AM 52.0 °F 40.6 °F 65% 29.88 in 10.0 mi SE 16.1 mph 23.0 mph N/A Rain Light Rain
7:35 AM 52.7 °F 40.5 °F 63% 29.87 in 10.0 mi SE 18.4 mph 25.3 mph N/A Rain Light Rain
7:55 AM 51.4 °F 42.1 °F 70% 29.87 in 10.0 mi SE 17.3 mph 21.9 mph 0.01 in Rain Light Rain
8:15 AM 51.8 °F 42.3 °F 70% 29.88 in 10.0 mi SE 16.1 mph 23.0 mph N/A   Overcast
8:35 AM 52.3 °F 41.9 °F 68% 29.87 in 10.0 mi SE 18.4 mph 25.3 mph N/A Rain Light Rain
8:55 AM 52.5 °F 42.1 °F 68% 29.85 in 10.0 mi SE 17.3 mph 25.3 mph N/A   Overcast
9:15 AM 52.9 °F 41.9 °F 66% 29.84 in 10.0 mi SE 16.1 mph 25.3 mph N/A   Overcast
9:35 AM 53.6 °F 42.3 °F 65% 29.84 in 10.0 mi SE 19.6 mph 25.3 mph N/A   Overcast
9:55 AM 53.1 °F 43.7 °F 71% 29.84 in 10.0 mi SE 16.1 mph 21.9 mph N/A Rain Light Rain
10:15 AM 54.0 °F 43.5 °F 68% 29.82 in 10.0 mi SE 18.4 mph 25.3 mph N/A Rain Light Rain
10:30 AM 54.1 °F 42.6 °F 65% 29.81 in 10.0 mi SE 19.6 mph 26.5 mph N/A   Overcast
10:50 AM 55.6 °F 42.4 °F 61% 29.80 in 10.0 mi SE 19.6 mph 26.5 mph N/A   Overcast
11:15 AM 56.5 °F 43.2 °F 61% 29.80 in 10.0 mi SSE 20.7 mph 25.3 mph N/A   Mostly Cloudy
11:35 AM 58.5 °F 42.1 °F 55% 29.79 in 10.0 mi SSE 21.9 mph 27.6 mph N/A   Scattered Clouds
11:55 AM 58.6 °F 42.4 °F 55% 29.78 in 10.0 mi SE 21.9 mph 34.5 mph N/A Rain Light Rain
12:15 PM 59.4 °F 43.0 °F 55% 29.75 in 10.0 mi SSE 21.9 mph 27.6 mph N/A   Mostly Cloudy
12:35 PM 59.0 °F 42.8 °F 55% 29.74 in 10.0 mi SSE 19.6 mph 31.1 mph N/A Thunderstorm Thunderstorm
1:15 PM 55.9 °F 45.0 °F 67% 29.69 in 7.0 mi SSE 23.0 mph 36.8 mph 0.01 in Rain , Thunderstorm Light Thunderstorms and Rain
1:35 PM 57.0 °F 43.7 °F 61% 29.69 in 10.0 mi SE 20.7 mph 31.1 mph 0.01 in Rain , Thunderstorm Light Thunderstorms and Rain
1:55 PM 55.6 °F 45.5 °F 69% 29.69 in 7.0 mi SE 19.6 mph 28.8 mph 0.03 in Rain Light Rain
2:15 PM 60.8 °F 45.1 °F 56% 29.68 in 10.0 mi SE 21.9 mph 28.8 mph N/A   Mostly Cloudy
2:35 PM 62.6 °F 44.6 °F 52% 29.67 in 10.0 mi SE 26.5 mph 35.7 mph N/A   Clear
2:55 PM 63.1 °F 45.7 °F 53% 29.64 in 10.0 mi SE 21.9 mph 29.9 mph N/A   Clear
3:15 PM 65.7 °F 45.5 °F 48% 29.64 in 10.0 mi SSE 26.5 mph 35.7 mph N/A   Clear
3:35 PM 66.7 °F 46.0 °F 47% 29.63 in 10.0 mi SE 18.4 mph 28.8 mph N/A   Clear
3:55 PM 70.9 °F 44.8 °F 39% 29.63 in 10.0 mi SSE 24.2 mph 29.9 mph N/A   Clear
4:15 PM 72.3 °F 44.1 °F 36% 29.62 in 10.0 mi SSE 26.5 mph 38.0 mph N/A   Clear
4:35 PM 71.2 °F 45.5 °F 40% 29.61 in 10.0 mi SSE 17.3 mph 27.6 mph N/A   Clear
4:55 PM 72.9 °F 45.1 °F 37% 29.60 in 10.0 mi SSE 19.6 mph 29.9 mph N/A   Clear
5:15 PM 71.8 °F 45.7 °F 39% 29.57 in 10.0 mi SSE 26.5 mph 34.5 mph N/A   Clear
5:35 PM 73.8 °F 45.5 °F 36% 29.56 in 10.0 mi SSE 21.9 mph 34.5 mph N/A Thunderstorm Thunderstorm
5:55 PM 73.6 °F 46.4 °F 38% 29.53 in 10.0 mi SE 21.9 mph 35.7 mph N/A Thunderstorm Scattered Clouds
6:15 PM 74.3 °F 46.6 °F 37% 29.55 in 10.0 mi SSE 23.0 mph 39.1 mph N/A   Scattered Clouds
6:35 PM 73.6 °F 46.4 °F 38% 29.55 in 10.0 mi SE 18.4 mph 29.9 mph N/A   Clear
6:55 PM 73.6 °F 47.3 °F 39% 29.54 in 10.0 mi SSE 15.0 mph 19.6 mph N/A   Clear
7:15 PM 75.6 °F 47.3 °F 37% 29.53 in 10.0 mi SSE 15.0 mph 24.2 mph N/A   Clear
7:35 PM 75.7 °F 46.6 °F 35% 29.51 in 10.0 mi SE 18.4 mph 27.6 mph N/A   Scattered Clouds
7:55 PM 74.8 °F 46.6 °F 37% 29.53 in 10.0 mi SSE 19.6 mph 25.3 mph N/A   Mostly Cloudy
8:15 PM 74.3 °F 46.4 °F 37% 29.53 in 10.0 mi SE 19.6 mph 25.3 mph N/A   Scattered Clouds
8:35 PM 73.4 °F 46.6 °F 38% 29.53 in 10.0 mi SE 15.0 mph 21.9 mph N/A   Mostly Cloudy
8:55 PM 71.6 °F 46.8 °F 41% 29.54 in 10.0 mi SE 17.3 mph - N/A Thunderstorm Scattered Clouds
9:15 PM 71.1 °F 47.3 °F 43% 29.55 in 10.0 mi SE 15.0 mph 26.5 mph N/A   Scattered Clouds
9:35 PM 69.8 °F 48.2 °F 46% 29.56 in 10.0 mi SE 16.1 mph - N/A   Scattered Clouds
9:55 PM 68.7 °F 48.6 °F 49% 29.55 in 10.0 mi SE 16.1 mph - N/A   Scattered Clouds
10:15 PM 68.4 °F 48.6 °F 49% 29.54 in 10.0 mi SE 17.3 mph 25.3 mph N/A   Clear
10:35 PM 68.7 °F 48.6 °F 49% 29.55 in 10.0 mi SE 15.0 mph 23.0 mph N/A   Clear
10:55 PM 68.5 °F 49.1 °F 50% 29.54 in 10.0 mi SE 9.2 mph 17.3 mph N/A   Clear
11:15 PM 66.9 °F 49.1 °F 53% 29.59 in 10.0 mi North 17.3 mph - N/A   Scattered Clouds
11:35 PM 68.0 °F 48.9 °F 50% 29.58 in 10.0 mi ENE 8.1 mph - N/A   Mostly Cloudy
11:55 PM 60.3 °F 47.1 °F 62% 29.60 in 10.0 mi North 18.4 mph 39.1 mph N/A   Mostly Cloudy